createdAt,value
2022-12-31T00:00:38.560Z,85.97
2022-12-31T00:03:07.347Z,85.86
2022-12-31T00:05:38.097Z,86.33
2022-12-31T00:08:07.756Z,86.38
2022-12-31T00:10:41.341Z,86.35
2022-12-31T00:13:09.603Z,86.38
2022-12-31T00:15:37.672Z,86.43
2022-12-31T00:18:06.031Z,86.03
2022-12-31T00:20:34.169Z,85.86
2022-12-31T00:23:02.061Z,86.14
2022-12-31T00:25:31.326Z,86.02
2022-12-31T00:27:59.202Z,86.32
2022-12-31T00:30:27.048Z,85.84
2022-12-31T00:32:54.847Z,85.93
2022-12-31T00:35:22.729Z,86.24
2022-12-31T00:37:52.770Z,86.24
2022-12-31T00:40:20.668Z,86.21
2022-12-31T00:42:49.942Z,86.52
2022-12-31T00:45:18.487Z,86.24
2022-12-31T00:47:46.488Z,86.10
2022-12-31T00:50:14.831Z,85.98
2022-12-31T00:52:43.046Z,86.07
2022-12-31T00:55:11.105Z,86.45
2022-12-31T00:57:39.364Z,86.34
2022-12-31T01:00:10.414Z,85.74
2022-12-31T01:02:38.838Z,86.44
2022-12-31T01:05:08.650Z,86.22
2022-12-31T01:07:38.727Z,85.99
2022-12-31T01:10:07.679Z,86.36
2022-12-31T01:12:35.590Z,86.21
2022-12-31T01:15:03.905Z,85.99
2022-12-31T01:17:33.128Z,86.01
2022-12-31T01:20:01.537Z,86.42
2022-12-31T01:22:29.377Z,86.38
2022-12-31T01:24:57.236Z,86.40
2022-12-31T01:27:25.592Z,86.39
2022-12-31T01:29:53.488Z,86.37
2022-12-31T01:32:21.360Z,86.00
2022-12-31T01:34:50.585Z,86.25
2022-12-31T01:37:18.491Z,86.59
2022-12-31T01:39:46.323Z,86.45
2022-12-31T01:42:14.542Z,86.45
2022-12-31T01:44:51.089Z,86.59
2022-12-31T01:47:36.871Z,86.02
2022-12-31T01:50:13.199Z,86.40
2022-12-31T01:52:45.943Z,86.29
2022-12-31T01:55:19.449Z,86.34
2022-12-31T01:57:51.815Z,86.10
2022-12-31T02:00:20.755Z,86.14
2022-12-31T02:02:48.745Z,86.05
2022-12-31T02:05:26.048Z,86.10
2022-12-31T02:07:55.854Z,86.04
2022-12-31T02:10:23.881Z,85.80
2022-12-31T02:12:53.192Z,85.71
2022-12-31T02:15:33.998Z,85.37
2022-12-31T02:18:12.389Z,85.77
2022-12-31T02:21:03.209Z,85.38
2022-12-31T02:23:53.786Z,85.32
2022-12-31T02:27:00.111Z,86.08
2022-12-31T02:29:55.046Z,85.66
2022-12-31T02:32:30.701Z,85.59
2022-12-31T02:35:06.715Z,85.54
2022-12-31T02:37:39.028Z,85.36
2022-12-31T02:40:11.098Z,85.38
2022-12-31T02:42:39.332Z,85.70
2022-12-31T02:45:13.412Z,85.27
2022-12-31T02:47:58.692Z,85.58
2022-12-31T02:50:55.315Z,84.94
2022-12-31T02:53:41.770Z,85.29
2022-12-31T02:56:23.241Z,84.92
2022-12-31T02:59:20.731Z,85.20
2022-12-31T03:02:11.169Z,84.35
2022-12-31T03:04:40.629Z,84.49
2022-12-31T03:07:11.147Z,84.35
2022-12-31T03:09:40.537Z,84.40
2022-12-31T03:12:31.784Z,84.41
2022-12-31T03:14:59.868Z,84.39
2022-12-31T03:17:29.157Z,84.25
2022-12-31T03:20:15.098Z,84.57
2022-12-31T03:22:44.658Z,84.29
2022-12-31T03:25:33.664Z,84.14
2022-12-31T03:28:02.878Z,84.19
2022-12-31T03:30:32.867Z,84.29
2022-12-31T03:35:50.934Z,84.69
2022-12-31T03:38:20.138Z,84.67
2022-12-31T03:40:51.323Z,84.56
2022-12-31T03:43:20.207Z,85.19
2022-12-31T03:45:51.339Z,84.73
2022-12-31T03:51:10.708Z,85.29
2022-12-31T03:53:38.625Z,85.00
2022-12-31T03:56:06.772Z,84.68
2022-12-31T03:58:34.588Z,85.06
2022-12-31T04:01:02.939Z,84.91
2022-12-31T04:03:35.240Z,84.95
2022-12-31T04:06:03.532Z,85.33
2022-12-31T04:08:31.420Z,85.06
2022-12-31T04:10:59.698Z,85.27
2022-12-31T04:13:27.595Z,85.25
2022-12-31T04:15:55.430Z,85.11
2022-12-31T04:18:23.390Z,84.88
2022-12-31T04:20:52.658Z,84.88
2022-12-31T04:23:21.166Z,84.55
2022-12-31T04:25:49.033Z,84.79
2022-12-31T04:28:17.455Z,84.08
2022-12-31T04:30:45.309Z,84.71
2022-12-31T04:33:13.637Z,83.92
2022-12-31T04:35:41.525Z,83.89
2022-12-31T04:38:11.417Z,83.94
2022-12-31T04:40:59.956Z,83.92
2022-12-31T04:43:28.099Z,83.88
2022-12-31T04:45:56.015Z,83.78
2022-12-31T04:48:23.883Z,84.03
2022-12-31T04:50:52.158Z,83.65
2022-12-31T04:53:21.409Z,83.65
2022-12-31T04:55:49.671Z,83.58
2022-12-31T04:58:18.121Z,83.79
2022-12-31T05:00:49.786Z,83.68
2022-12-31T05:03:18.077Z,83.36
2022-12-31T05:05:46.053Z,83.50
2022-12-31T05:08:15.477Z,83.53
2022-12-31T05:10:47.153Z,83.16
2022-12-31T05:13:16.114Z,83.38
2022-12-31T05:15:44.154Z,83.30
2022-12-31T05:18:12.401Z,83.42
2022-12-31T05:20:46.715Z,83.42
2022-12-31T05:23:14.770Z,83.09
2022-12-31T05:25:46.964Z,83.45
2022-12-31T05:28:16.569Z,82.83
2022-12-31T05:30:45.672Z,82.52
2022-12-31T05:33:13.538Z,82.34
2022-12-31T05:35:41.383Z,82.21
2022-12-31T05:38:09.508Z,82.28
2022-12-31T05:40:37.394Z,82.06
2022-12-31T05:43:08.889Z,82.08
2022-12-31T05:45:37.167Z,82.38
2022-12-31T05:48:06.007Z,82.37
2022-12-31T05:50:33.940Z,82.14
2022-12-31T05:53:02.220Z,82.43
2022-12-31T05:55:30.079Z,82.26
2022-12-31T05:57:58.232Z,81.98
2022-12-31T06:00:27.635Z,82.33
2022-12-31T06:02:55.562Z,81.86
2022-12-31T06:05:26.277Z,82.14
2022-12-31T06:07:54.943Z,81.88
2022-12-31T06:10:22.859Z,81.72
2022-12-31T06:12:51.156Z,81.55
2022-12-31T06:15:19.168Z,81.53
2022-12-31T06:17:48.445Z,81.56
2022-12-31T06:20:16.475Z,81.88
2022-12-31T06:22:44.360Z,81.86
2022-12-31T06:25:12.321Z,81.27
2022-12-31T06:27:40.181Z,81.09
2022-12-31T06:30:09.607Z,81.53
2022-12-31T06:32:37.435Z,81.28
2022-12-31T06:35:08.380Z,81.08
2022-12-31T06:37:36.410Z,81.25
2022-12-31T06:40:04.775Z,80.72
2022-12-31T06:42:32.746Z,81.57
2022-12-31T06:45:00.634Z,81.24
2022-12-31T06:47:28.929Z,81.18
2022-12-31T06:49:56.784Z,81.16
2022-12-31T06:52:26.440Z,81.00
2022-12-31T06:54:54.854Z,81.41
2022-12-31T06:57:23.791Z,81.31
2022-12-31T06:59:52.353Z,81.27
2022-12-31T07:02:45.543Z,81.62
2022-12-31T07:05:40.396Z,81.71
2022-12-31T07:08:26.711Z,82.10
2022-12-31T07:11:05.559Z,81.76
2022-12-31T07:14:00.370Z,81.62
2022-12-31T07:16:39.435Z,81.37
2022-12-31T07:19:23.467Z,81.80
2022-12-31T07:21:55.324Z,81.68
2022-12-31T07:24:25.652Z,81.72
2022-12-31T07:27:11.991Z,81.24
2022-12-31T07:29:58.782Z,81.00
2022-12-31T07:32:51.704Z,80.59
2022-12-31T07:35:35.222Z,80.06
2022-12-31T07:38:16.061Z,80.60
2022-12-31T07:41:07.336Z,80.06
2022-12-31T07:43:53.645Z,79.93
2022-12-31T07:46:32.262Z,79.97
2022-12-31T07:49:01.124Z,79.76
2022-12-31T07:51:30.117Z,79.40
2022-12-31T07:53:57.956Z,79.17
2022-12-31T07:56:27.369Z,79.09
2022-12-31T07:59:08.468Z,78.99
2022-12-31T08:01:50.808Z,78.76
2022-12-31T08:04:29.522Z,78.98
2022-12-31T08:07:06.254Z,78.49
2022-12-31T08:09:46.110Z,78.94
2022-12-31T08:12:15.934Z,78.59
2022-12-31T08:14:48.145Z,78.64
2022-12-31T08:17:19.293Z,78.46
2022-12-31T08:19:48.043Z,78.38
2022-12-31T08:22:42.698Z,78.50
2022-12-31T08:25:28.569Z,78.48
2022-12-31T08:28:23.041Z,78.02
2022-12-31T08:31:00.678Z,78.41
2022-12-31T08:33:37.092Z,77.76
2022-12-31T08:36:18.382Z,77.89
2022-12-31T08:38:57.270Z,77.67
2022-12-31T08:41:31.386Z,77.52
2022-12-31T08:44:12.297Z,77.19
2022-12-31T08:46:50.848Z,76.97
2022-12-31T08:49:19.215Z,76.79
2022-12-31T08:51:48.301Z,76.84
2022-12-31T08:54:16.646Z,76.79
2022-12-31T08:56:53.134Z,77.05
2022-12-31T08:59:37.718Z,76.89
2022-12-31T09:02:47.845Z,77.01
2022-12-31T09:05:23.788Z,76.34
2022-12-31T09:08:09.551Z,76.36
2022-12-31T09:10:48.407Z,75.84
2022-12-31T09:13:26.058Z,75.61
2022-12-31T09:16:09.015Z,75.40
2022-12-31T09:18:42.756Z,75.25
2022-12-31T09:21:12.130Z,75.30
2022-12-31T09:23:46.609Z,75.09
2022-12-31T09:26:35.170Z,75.20
2022-12-31T09:29:18.975Z,74.86
2022-12-31T09:31:59.035Z,75.16
2022-12-31T09:34:39.915Z,74.62
2022-12-31T09:37:17.891Z,75.09
2022-12-31T09:39:48.736Z,74.72
2022-12-31T09:42:59.956Z,74.40
2022-12-31T09:45:58.601Z,74.07
2022-12-31T09:49:02.556Z,73.88
2022-12-31T09:51:48.872Z,74.03
2022-12-31T09:54:31.173Z,73.59
2022-12-31T09:57:22.100Z,74.02
2022-12-31T10:00:08.512Z,73.73
2022-12-31T10:03:16.468Z,73.34
2022-12-31T10:06:02.904Z,74.26
2022-12-31T10:08:57.576Z,73.83
2022-12-31T10:11:42.643Z,72.63
2022-12-31T10:14:35.778Z,72.77
2022-12-31T10:17:21.225Z,72.81
2022-12-31T10:20:08.444Z,72.80
2022-12-31T10:23:06.560Z,72.56
2022-12-31T10:26:06.377Z,72.50
2022-12-31T10:28:50.441Z,72.14
2022-12-31T10:31:41.179Z,71.80
2022-12-31T10:34:17.181Z,71.53
2022-12-31T10:36:56.001Z,72.32
2022-12-31T10:39:39.052Z,71.97
2022-12-31T10:42:54.912Z,72.01
2022-12-31T10:45:53.251Z,72.01
2022-12-31T10:48:59.214Z,71.78
2022-12-31T10:52:11.815Z,71.73
2022-12-31T10:55:09.782Z,71.07
2022-12-31T10:58:14.386Z,71.37
2022-12-31T11:00:53.463Z,70.81
2022-12-31T11:04:00.204Z,70.65
2022-12-31T11:07:07.733Z,71.07
2022-12-31T11:10:28.417Z,70.35
2022-12-31T11:13:21.695Z,70.37
2022-12-31T11:16:07.585Z,70.01
2022-12-31T11:18:49.956Z,69.73
2022-12-31T11:21:34.212Z,69.87
2022-12-31T11:24:15.001Z,69.22
2022-12-31T11:27:11.810Z,69.16
2022-12-31T11:30:00.975Z,69.12
2022-12-31T11:32:48.347Z,69.03
2022-12-31T11:35:46.084Z,69.19
2022-12-31T11:38:25.961Z,68.65
2022-12-31T11:41:06.816Z,69.18
2022-12-31T11:43:48.099Z,68.17
2022-12-31T11:46:55.041Z,67.41
2022-12-31T11:49:44.806Z,66.79
2022-12-31T11:52:34.031Z,66.78
2022-12-31T11:55:24.268Z,66.23
2022-12-31T11:57:53.850Z,67.20
2022-12-31T12:00:24.789Z,66.78
2022-12-31T12:03:04.931Z,66.79
2022-12-31T12:05:37.006Z,66.76
2022-12-31T12:08:04.911Z,66.93
2022-12-31T12:10:42.362Z,66.82
2022-12-31T12:13:20.267Z,67.33
2022-12-31T12:15:51.655Z,66.72
2022-12-31T12:18:30.829Z,66.63
2022-12-31T12:21:09.818Z,67.13
2022-12-31T12:23:38.611Z,67.15
2022-12-31T12:26:08.256Z,67.23
2022-12-31T12:28:48.032Z,66.65
2022-12-31T12:31:22.303Z,66.51
2022-12-31T12:33:52.616Z,66.75
2022-12-31T12:36:23.082Z,66.74
2022-12-31T12:39:05.837Z,66.56
2022-12-31T12:41:34.174Z,67.35
2022-12-31T12:44:10.756Z,66.66
2022-12-31T12:46:48.183Z,66.97
2022-12-31T12:49:24.685Z,67.16
2022-12-31T12:52:10.489Z,67.22
2022-12-31T12:55:00.861Z,67.15
2022-12-31T12:57:39.248Z,67.42
2022-12-31T13:00:18.633Z,66.42
2022-12-31T13:03:17.244Z,67.03
2022-12-31T13:06:05.912Z,67.61
2022-12-31T13:09:00.164Z,67.90
2022-12-31T13:11:41.206Z,67.81
2022-12-31T13:14:27.448Z,67.32
2022-12-31T13:17:05.473Z,67.28
2022-12-31T13:19:44.780Z,67.38
2022-12-31T13:22:21.268Z,67.92
2022-12-31T13:25:03.853Z,67.46
2022-12-31T13:27:38.426Z,68.16
2022-12-31T13:30:18.071Z,67.67
2022-12-31T13:32:59.529Z,67.79
2022-12-31T13:35:32.095Z,68.55
2022-12-31T13:38:08.895Z,68.41
2022-12-31T13:40:48.123Z,68.73
2022-12-31T13:43:23.298Z,68.64
2022-12-31T13:46:04.664Z,68.33
2022-12-31T13:48:38.481Z,68.79
2022-12-31T13:51:15.297Z,69.19
2022-12-31T13:53:52.141Z,69.13
2022-12-31T13:56:29.086Z,68.84
2022-12-31T13:59:06.122Z,68.91
2022-12-31T14:01:39.916Z,69.36
2022-12-31T14:04:16.174Z,69.10
2022-12-31T14:06:52.070Z,68.43
2022-12-31T14:09:24.879Z,69.40
2022-12-31T14:12:13.515Z,68.90
2022-12-31T14:14:54.247Z,68.94
2022-12-31T14:17:33.022Z,69.40
2022-12-31T14:20:18.463Z,68.88
2022-12-31T14:22:59.592Z,69.23
2022-12-31T14:25:36.207Z,69.51
2022-12-31T14:28:08.858Z,69.35
2022-12-31T14:30:42.123Z,69.64
2022-12-31T14:33:32.256Z,69.41
2022-12-31T14:36:14.506Z,69.32
2022-12-31T14:39:10.177Z,69.55
2022-12-31T14:42:03.130Z,69.35
2022-12-31T14:44:48.396Z,69.88
2022-12-31T14:47:34.759Z,69.68
2022-12-31T14:50:12.781Z,68.97
2022-12-31T14:52:53.519Z,68.86
2022-12-31T14:55:29.661Z,69.28
2022-12-31T14:58:28.728Z,68.96
2022-12-31T15:01:01.071Z,69.41
2022-12-31T15:03:44.774Z,69.33
2022-12-31T15:06:36.843Z,68.97
2022-12-31T15:09:20.444Z,68.77
2022-12-31T15:12:12.216Z,69.24
2022-12-31T15:15:02.449Z,69.36
2022-12-31T15:17:49.358Z,69.60
2022-12-31T15:20:38.056Z,69.37
2022-12-31T15:23:18.511Z,69.65
2022-12-31T15:25:50.670Z,69.77
2022-12-31T15:28:33.535Z,69.97
2022-12-31T15:31:13.088Z,70.95
2022-12-31T15:34:01.020Z,70.52
2022-12-31T15:36:32.179Z,70.62
2022-12-31T15:39:37.739Z,70.30
2022-12-31T15:42:37.771Z,70.08
2022-12-31T15:45:15.920Z,70.71
2022-12-31T15:47:49.875Z,70.57
2022-12-31T15:50:24.556Z,70.42
2022-12-31T15:52:56.711Z,70.30
2022-12-31T15:55:30.270Z,70.28
2022-12-31T15:58:05.337Z,70.05
2022-12-31T16:00:58.737Z,70.36
2022-12-31T16:03:30.192Z,70.74
2022-12-31T16:06:03.395Z,71.03
2022-12-31T16:08:35.460Z,70.78
2022-12-31T16:11:06.928Z,70.91
2022-12-31T16:13:41.093Z,70.65
2022-12-31T16:16:20.462Z,70.84
2022-12-31T16:18:50.485Z,70.50
2022-12-31T16:21:30.345Z,70.94
2022-12-31T16:24:00.750Z,70.65
2022-12-31T16:26:35.555Z,70.64
2022-12-31T16:29:05.340Z,70.38
2022-12-31T16:31:34.162Z,70.68
2022-12-31T16:34:08.188Z,71.04
2022-12-31T16:36:37.478Z,70.90
2022-12-31T16:39:33.147Z,71.31
2022-12-31T16:42:20.844Z,71.34
2022-12-31T16:44:49.937Z,71.11
2022-12-31T16:47:22.430Z,71.70
2022-12-31T16:50:00.572Z,71.45
2022-12-31T16:52:35.198Z,71.84
2022-12-31T16:55:10.382Z,71.69
2022-12-31T16:57:39.506Z,72.34
2022-12-31T17:00:09.062Z,72.43
2022-12-31T17:02:40.761Z,72.84
2022-12-31T17:05:19.566Z,73.04
2022-12-31T17:07:49.069Z,73.33
2022-12-31T17:10:24.287Z,72.56
2022-12-31T17:15:46.638Z,73.33
2022-12-31T17:18:20.331Z,72.79
2022-12-31T17:20:51.036Z,73.14
2022-12-31T17:23:27.741Z,73.01
2022-12-31T17:26:00.933Z,72.57
2022-12-31T17:28:39.475Z,72.42
2022-12-31T17:31:29.981Z,72.59
2022-12-31T17:34:18.676Z,72.57
2022-12-31T17:36:59.324Z,72.49
2022-12-31T17:39:43.688Z,72.21
2022-12-31T17:42:14.159Z,72.02
2022-12-31T17:44:45.357Z,72.32
2022-12-31T17:47:14.948Z,72.43
2022-12-31T17:49:46.771Z,72.19
2022-12-31T17:52:16.819Z,72.36
2022-12-31T17:54:46.008Z,72.16
2022-12-31T17:57:27.953Z,72.69
2022-12-31T17:59:55.994Z,72.25
2022-12-31T18:02:23.928Z,72.41
2022-12-31T18:04:53.540Z,72.47
2022-12-31T18:07:21.399Z,72.47
2022-12-31T18:09:50.623Z,73.41
2022-12-31T18:12:20.440Z,73.12
2022-12-31T18:14:48.384Z,73.66
2022-12-31T18:17:17.302Z,74.03
2022-12-31T18:20:04.364Z,74.21
2022-12-31T18:22:33.143Z,74.26
2022-12-31T18:25:02.754Z,73.80
2022-12-31T18:27:32.253Z,73.58
2022-12-31T18:30:04.877Z,74.54
2022-12-31T18:32:35.946Z,75.07
2022-12-31T18:35:04.192Z,74.90
2022-12-31T18:37:36.359Z,75.51
2022-12-31T18:40:06.419Z,75.42
2022-12-31T18:42:34.713Z,75.78
2022-12-31T18:45:02.605Z,75.37
2022-12-31T18:47:37.353Z,75.35
2022-12-31T18:50:06.400Z,75.07
2022-12-31T18:52:34.273Z,75.03
2022-12-31T18:55:25.490Z,74.74
2022-12-31T18:57:53.385Z,74.58
2022-12-31T19:00:21.417Z,74.69
2022-12-31T19:02:49.773Z,74.78
2022-12-31T19:05:24.050Z,75.04
2022-12-31T19:07:51.932Z,75.58
2022-12-31T19:10:21.358Z,75.14
2022-12-31T19:12:49.632Z,74.87
2022-12-31T19:15:27.869Z,74.26
2022-12-31T19:17:55.712Z,74.39
2022-12-31T19:20:24.552Z,74.77
2022-12-31T19:22:52.581Z,74.47
2022-12-31T19:25:24.253Z,74.94
2022-12-31T19:27:52.938Z,75.12
2022-12-31T19:30:26.269Z,75.02
2022-12-31T19:32:54.804Z,74.81
2022-12-31T19:35:23.887Z,74.54
2022-12-31T19:37:53.283Z,74.27
2022-12-31T19:40:25.219Z,74.23
2022-12-31T19:42:56.073Z,74.51
2022-12-31T19:45:26.545Z,74.71
2022-12-31T19:47:56.553Z,73.92
2022-12-31T19:50:27.331Z,74.18
2022-12-31T19:52:58.606Z,73.62
2022-12-31T19:55:32.917Z,74.16
2022-12-31T19:58:00.981Z,74.04
2022-12-31T20:00:28.938Z,74.63
2022-12-31T20:02:58.384Z,74.39
2022-12-31T20:05:26.358Z,73.88
2022-12-31T20:07:54.241Z,74.04
2022-12-31T20:10:23.368Z,73.92
2022-12-31T20:12:52.592Z,74.14
2022-12-31T20:15:20.467Z,74.13
2022-12-31T20:17:48.395Z,74.29
2022-12-31T20:20:16.950Z,74.10
2022-12-31T20:22:44.856Z,73.97
2022-12-31T20:25:12.752Z,74.32
2022-12-31T20:27:40.655Z,74.14
2022-12-31T20:30:12.741Z,74.39
2022-12-31T20:32:40.601Z,73.94
2022-12-31T20:35:09.196Z,73.56
2022-12-31T20:37:37.101Z,73.79
2022-12-31T20:40:05.507Z,73.52
2022-12-31T20:42:33.353Z,73.84
2022-12-31T20:45:01.236Z,73.88
2022-12-31T20:47:30.954Z,73.55
2022-12-31T20:50:11.535Z,73.40
2022-12-31T20:52:40.055Z,73.02
2022-12-31T20:55:10.171Z,72.75
2022-12-31T20:57:38.077Z,73.09
2022-12-31T21:00:07.481Z,72.88
2022-12-31T21:02:42.044Z,73.22
2022-12-31T21:05:11.984Z,72.92
2022-12-31T21:07:40.030Z,73.21
2022-12-31T21:10:08.780Z,73.47
2022-12-31T21:12:45.216Z,72.71
2022-12-31T21:15:14.126Z,73.05
2022-12-31T21:17:44.031Z,73.19
2022-12-31T21:20:12.798Z,73.02
2022-12-31T21:22:40.951Z,72.61
2022-12-31T21:25:09.489Z,72.54
2022-12-31T21:27:37.866Z,72.89
2022-12-31T21:30:21.579Z,72.67
2022-12-31T21:32:50.821Z,72.02
2022-12-31T21:38:08.642Z,71.86
2022-12-31T21:40:36.951Z,72.54
2022-12-31T21:43:04.859Z,72.26
2022-12-31T21:45:33.276Z,72.59
2022-12-31T21:48:21.876Z,72.56
2022-12-31T21:50:52.063Z,71.85
2022-12-31T21:53:26.148Z,71.86
2022-12-31T21:56:08.971Z,71.96
2022-12-31T21:58:38.171Z,71.60
2022-12-31T22:01:25.082Z,71.74
2022-12-31T22:03:54.520Z,71.12
2022-12-31T22:06:25.139Z,71.20
2022-12-31T22:08:56.081Z,71.16
2022-12-31T22:11:27.076Z,70.80
2022-12-31T22:13:55.934Z,70.59
2022-12-31T22:16:24.343Z,70.81
2022-12-31T22:18:52.334Z,70.92
2022-12-31T22:21:23.577Z,71.10
2022-12-31T22:23:54.417Z,71.38
2022-12-31T22:26:25.350Z,71.41
2022-12-31T22:28:59.553Z,71.46
2022-12-31T22:31:31.403Z,71.72
2022-12-31T22:34:00.567Z,71.92
2022-12-31T22:36:29.900Z,71.70
2022-12-31T22:38:59.378Z,71.17
2022-12-31T22:41:29.509Z,71.60
2022-12-31T22:44:04.671Z,71.70
2022-12-31T22:46:35.742Z,72.51
2022-12-31T22:49:05.948Z,72.43
2022-12-31T22:51:54.915Z,73.16
2022-12-31T22:54:23.417Z,72.87
2022-12-31T22:56:51.635Z,72.77
2022-12-31T22:59:19.534Z,71.94
2022-12-31T23:01:48.109Z,72.83
2022-12-31T23:04:16.040Z,72.56
2022-12-31T23:06:45.745Z,72.72
2022-12-31T23:09:32.621Z,72.67
2022-12-31T23:12:00.708Z,72.19
2022-12-31T23:14:46.034Z,72.52
2022-12-31T23:17:35.518Z,72.70
2022-12-31T23:20:21.748Z,72.91
2022-12-31T23:23:08.588Z,73.72
2022-12-31T23:25:38.746Z,73.99
2022-12-31T23:28:08.648Z,74.22
2022-12-31T23:30:39.443Z,74.05
2022-12-31T23:33:08.070Z,73.72
2022-12-31T23:35:35.983Z,73.71
2022-12-31T23:38:05.296Z,74.48
2022-12-31T23:40:35.161Z,75.11
2022-12-31T23:43:04.751Z,74.50
2022-12-31T23:45:34.927Z,74.19
2022-12-31T23:48:03.280Z,74.55
2022-12-31T23:50:31.512Z,74.17
2022-12-31T23:52:59.320Z,74.69
2022-12-31T23:58:14.671Z,75.43
